Providence, Rhode Island
Traffic Map
Current Weather Conditions
Providence, Rhode Island
Overcast
Overcast

Feels Like: 5°
Wind Chill: Ceiling: 1300
Heat Index: Visibility: 10mi
Dew Point: Wind: 16mph
Humidity: 83% Direction: 20° (NNE)
Pressure: 29.68in Gusts: 0mph
Raw Report DataKPVD 060651Z AUTO 02014KT 10SM OVC013 08/06 A2968 RMK AO2 SLP050 T00830056
Traffic Incident Summary
Active as of:
Severity:
Category:
InformationThere was an issue retrieving the traffic information for this location. Please try a different location or try again shortly.
Advertisements
Track Severe Weather on mobile